Time;durP1;ratioP1;P1;durP2;ratioP2;P2;SDS_P1;SDS_P2;PMS_P1;PMS_P2;Temp;Humidity;BMP_temperature;BMP_pressure;BME280_temperature;BME280_humidity;BME280_pressure;Samples;Min_cycle;Max_cycle;Signal;HPM_P1;HPM_P2
2021/08/27 00:02:20;;;;;;;4.20;3.80;;;14.80;99.90;;;;;;4981338;28;20380;-81
2021/08/27 00:04:46;;;;;;;6.17;3.53;;;14.80;99.90;;;;;;4981133;28;20181;-81
2021/08/27 00:07:12;;;;;;;5.03;3.47;;;14.80;99.90;;;;;;4964462;28;20549;-80
2021/08/27 00:09:37;;;;;;;5.10;3.87;;;14.80;99.90;;;;;;4981743;28;20240;-80
2021/08/27 00:12:04;;;;;;;4.70;3.27;;;14.80;99.90;;;;;;4964429;28;20184;-81
2021/08/27 00:14:29;;;;;;;4.97;4.10;;;14.70;99.90;;;;;;4964545;28;20190;-81
2021/08/27 00:16:55;;;;;;;4.37;3.70;;;14.60;99.90;;;;;;4981426;28;20259;-81
2021/08/27 00:19:21;;;;;;;4.20;3.80;;;14.70;99.90;;;;;;4981041;28;20657;-81
2021/08/27 00:21:47;;;;;;;4.80;4.30;;;14.70;99.90;;;;;;4981267;28;20535;-81
2021/08/27 00:24:12;;;;;;;6.57;4.00;;;14.70;99.90;;;;;;4981352;28;20203;-81
2021/08/27 00:26:38;;;;;;;4.50;3.47;;;14.70;99.90;;;;;;4963099;28;20544;-81
2021/08/27 00:29:04;;;;;;;4.77;3.97;;;14.80;99.90;;;;;;4963470;28;20200;-81
2021/08/27 00:31:30;;;;;;;4.70;3.90;;;14.70;99.90;;;;;;4963950;28;20180;-81
2021/08/27 00:33:56;;;;;;;4.77;3.67;;;14.70;99.90;;;;;;4981309;28;20259;-81
2021/08/27 00:36:22;;;;;;;4.53;3.73;;;14.60;99.90;;;;;;4980864;28;20192;-81
2021/08/27 00:41:29;;;;;;;6.37;3.50;;;14.50;99.90;;;;;;4979064;28;20227;-80
2021/08/27 00:44:03;;;;;;;4.20;3.70;;;14.50;99.90;;;;;;4979239;28;20247;-80
2021/08/27 00:46:29;;;;;;;5.10;4.13;;;14.40;99.90;;;;;;4962115;28;20194;-80
2021/08/27 00:49:00;;;;;;;4.07;3.67;;;14.30;99.90;;;;;;4981491;28;20173;-80
2021/08/27 00:51:29;;;;;;;3.83;3.50;;;14.30;99.90;;;;;;4982742;28;20583;-82
2021/08/27 00:54:15;;;;;;;6.00;3.93;;;14.30;99.90;;;;;;5000781;28;20172;-80
2021/08/27 00:56:41;;;;;;;4.20;3.60;;;14.20;99.90;;;;;;4997675;28;20217;-80
2021/08/27 00:59:10;;;;;;;10.00;4.00;;;14.20;99.90;;;;;;4998254;28;20223;-80
2021/08/27 01:01:42;;;;;;;4.17;3.77;;;14.20;99.90;;;;;;4999263;28;20191;-80
2021/08/27 01:04:09;;;;;;;4.23;3.83;;;14.20;99.90;;;;;;4998618;28;20149;-80
2021/08/27 01:06:37;;;;;;;4.60;3.87;;;14.20;99.90;;;;;;4997792;28;20254;-81
2021/08/27 01:09:09;;;;;;;5.07;3.27;;;14.30;99.90;;;;;;4998412;28;20722;-81
2021/08/27 01:11:41;;;;;;;6.10;3.87;;;14.20;99.90;;;;;;4980749;28;20608;-81
2021/08/27 01:14:17;;;;;;;4.03;3.23;;;14.10;99.90;;;;;;4980484;28;20176;-80
2021/08/27 01:17:01;;;;;;;5.03;3.83;;;14.00;99.90;;;;;;4980303;28;20171;-81
2021/08/27 01:19:47;;;;;;;6.80;3.57;;;13.50;99.90;;;;;;4995710;28;20206;-81
2021/08/27 01:23:10;;;;;;;4.37;3.60;;;14.00;99.90;;;;;;4997909;28;20187;-81
2021/08/27 01:25:53;;;;;;;3.77;3.43;;;13.90;99.90;;;;;;4919383;29;20163;-81
2021/08/27 01:28:27;;;;;;;5.97;3.73;;;13.70;99.90;;;;;;4919097;29;20167;-81
2021/08/27 01:31:07;;;;;;;5.10;3.50;;;13.70;99.90;;;;;;4918853;29;20203;-81
2021/08/27 01:33:45;;;;;;;5.03;3.77;;;13.60;99.90;;;;;;4918152;29;20189;-81
2021/08/27 01:36:12;;;;;;;4.27;3.87;;;13.60;99.90;;;;;;4924626;28;20180;-81
2021/08/27 01:38:46;;;;;;;4.70;3.37;;;13.70;99.90;;;;;;4996803;28;20160;-80
2021/08/27 01:41:13;;;;;;;4.83;3.67;;;13.60;99.90;;;;;;4995033;28;20282;-81
2021/08/27 01:43:43;;;;;;;3.50;3.20;;;13.50;99.90;;;;;;4996976;28;20230;-79
2021/08/27 01:46:12;;;;;;;5.00;4.30;;;13.50;99.90;;;;;;4979959;28;20172;-81
2021/08/27 01:48:47;;;;;;;4.77;3.60;;;13.50;99.90;;;;;;4980374;28;20194;-82
2021/08/27 01:51:16;;;;;;;3.53;3.23;;;13.40;99.90;;;;;;4979105;28;20184;-79
2021/08/27 01:53:43;;;;;;;5.70;3.97;;;13.40;99.90;;;;;;4997618;28;20594;-81
2021/08/27 01:56:12;;;;;;;4.73;3.67;;;13.40;99.90;;;;;;4998221;28;20701;-81
2021/08/27 01:58:38;;;;;;;5.67;3.57;;;13.40;99.90;;;;;;4997586;28;20220;-81
2021/08/27 02:01:08;;;;;;;4.40;3.50;;;13.40;99.90;;;;;;4996764;28;20275;-81
2021/08/27 02:03:44;;;;;;;3.70;3.10;;;13.40;99.90;;;;;;4996595;28;20206;-81
2021/08/27 02:06:13;;;;;;;4.50;3.50;;;13.40;99.90;;;;;;4997226;28;20156;-81
2021/08/27 02:08:44;;;;;;;5.20;3.60;;;13.30;99.90;;;;;;4980191;28;20172;-81
2021/08/27 02:11:16;;;;;;;4.37;3.73;;;13.20;99.90;;;;;;4996349;28;20176;-81
2021/08/27 02:13:47;;;;;;;4.00;3.60;;;13.20;99.90;;;;;;4996237;28;20172;-81
2021/08/27 02:16:14;;;;;;;4.67;3.60;;;13.10;99.90;;;;;;4990056;28;20248;-81
2021/08/27 02:18:47;;;;;;;4.83;3.70;;;13.10;99.90;;;;;;4977163;28;20546;-81
2021/08/27 02:21:13;;;;;;;4.80;3.47;;;13.20;99.90;;;;;;4960030;28;20238;-81
2021/08/27 02:23:44;;;;;;;6.20;3.43;;;13.20;99.90;;;;;;4977736;28;20192;-81
2021/08/27 02:26:14;;;;;;;5.93;3.90;;;13.10;99.90;;;;;;4977854;28;20192;-81
2021/08/27 02:28:47;;;;;;;3.90;3.50;;;12.90;99.90;;;;;;4977680;28;20216;-81
2021/08/27 02:31:14;;;;;;;5.17;3.70;;;13.00;99.90;;;;;;4977965;28;20160;-81
2021/08/27 02:33:51;;;;;;;7.47;3.40;;;13.00;99.90;;;;;;4980335;28;20271;-81
2021/08/27 02:36:19;;;;;;;5.60;3.97;;;12.90;99.90;;;;;;4978062;28;20607;-81
2021/08/27 02:38:48;;;;;;;5.30;3.80;;;13.00;99.90;;;;;;4959776;28;20640;-81
2021/08/27 02:41:14;;;;;;;5.30;4.03;;;13.00;99.90;;;;;;4977723;28;20200;-81
2021/08/27 02:43:40;;;;;;;4.40;3.70;;;13.00;99.90;;;;;;4976974;28;20299;-81
2021/08/27 02:46:11;;;;;;;5.43;3.83;;;13.00;99.90;;;;;;4977307;28;20187;-81
2021/08/27 02:48:40;;;;;;;7.57;3.93;;;12.90;99.90;;;;;;4978873;28;20153;-81
2021/08/27 02:51:15;;;;;;;5.93;4.17;;;13.00;99.90;;;;;;4980575;28;20182;-81
2021/08/27 02:53:45;;;;;;;4.77;3.73;;;13.00;99.90;;;;;;4962896;28;20620;-81
2021/08/27 02:56:21;;;;;;;5.10;4.60;;;13.00;99.90;;;;;;4980949;28;20169;-81
2021/08/27 02:58:49;;;;;;;6.50;4.50;;;13.00;99.90;;;;;;4962348;28;20259;-81
2021/08/27 03:01:35;;;;;;;4.80;3.73;;;13.10;99.90;;;;;;4980461;28;20180;-81
2021/08/27 03:04:15;;;;;;;7.23;3.90;;;13.10;99.90;;;;;;4980842;28;20220;-81
2021/08/27 03:06:49;;;;;;;5.43;3.90;;;13.10;99.90;;;;;;4980276;28;20180;-81
2021/08/27 03:09:18;;;;;;;4.70;3.70;;;13.00;99.90;;;;;;4980097;28;20201;-81
2021/08/27 03:11:57;;;;;;;7.17;4.03;;;13.00;99.90;;;;;;4963600;28;20173;-81
2021/08/27 03:14:45;;;;;;;5.40;4.00;;;13.00;99.90;;;;;;4980149;28;20683;-81
2021/08/27 03:17:17;;;;;;;5.60;4.37;;;12.90;99.90;;;;;;4963369;28;20179;-81
2021/08/27 03:20:00;;;;;;;5.10;4.23;;;12.90;99.90;;;;;;4962693;28;20192;-81
2021/08/27 03:22:30;;;;;;;6.43;4.27;;;12.80;99.90;;;;;;4980676;28;20180;-81
2021/08/27 03:25:10;;;;;;;4.37;3.97;;;12.70;99.90;;;;;;4979747;28;20511;-81
2021/08/27 03:27:49;;;;;;;4.53;4.13;;;12.70;99.90;;;;;;4931199;28;20180;-81
2021/08/27 03:30:18;;;;;;;5.93;3.60;;;12.70;99.90;;;;;;4962950;28;20184;-81
2021/08/27 03:32:50;;;;;;;6.57;4.20;;;12.70;99.90;;;;;;4962849;28;20179;-81
2021/08/27 03:35:18;;;;;;;4.40;4.00;;;12.70;99.90;;;;;;4979974;28;20168;-81
2021/08/27 03:37:46;;;;;;;5.67;4.10;;;12.50;99.90;;;;;;4962186;28;20179;-81
2021/08/27 03:40:13;;;;;;;6.60;4.10;;;12.60;99.90;;;;;;4962300;28;20311;-81
2021/08/27 03:42:41;;;;;;;5.70;4.30;;;12.60;99.90;;;;;;4979959;28;20224;-81
2021/08/27 03:45:09;;;;;;;6.57;4.80;;;12.60;99.90;;;;;;4962698;28;20176;-81
2021/08/27 03:47:36;;;;;;;5.20;4.20;;;12.60;99.90;;;;;;4979680;28;20565;-81
2021/08/27 03:50:03;;;;;;;5.60;4.30;;;12.70;99.90;;;;;;4979852;28;20200;-81
2021/08/27 03:52:29;;;;;;;5.90;4.40;;;12.70;99.90;;;;;;4980163;28;20204;-80
2021/08/27 03:54:56;;;;;;;6.13;4.27;;;12.60;99.90;;;;;;4979194;28;20161;-81
2021/08/27 03:57:24;;;;;;;5.03;4.53;;;12.50;99.90;;;;;;4964069;28;20168;-81
2021/08/27 03:59:50;;;;;;;4.93;4.43;;;12.40;99.90;;;;;;4979217;28;20655;-81
2021/08/27 04:02:16;;;;;;;6.97;4.73;;;12.40;99.90;;;;;;4979956;28;20211;-81
2021/08/27 04:04:41;;;;;;;6.97;4.13;;;12.40;99.90;;;;;;4980038;28;20172;-81
2021/08/27 04:07:07;;;;;;;5.50;4.80;;;12.40;99.90;;;;;;4962516;28;20206;-81
2021/08/27 04:09:35;;;;;;;4.90;4.40;;;12.50;99.90;;;;;;4979870;28;20190;-79
2021/08/27 04:12:03;;;;;;;7.27;4.27;;;12.50;99.90;;;;;;4979410;28;20256;-81
2021/08/27 04:14:29;;;;;;;6.37;4.60;;;12.40;99.90;;;;;;4962202;28;20193;-81
2021/08/27 04:16:55;;;;;;;6.30;4.30;;;12.40;99.90;;;;;;4962828;28;20168;-81
2021/08/27 04:19:21;;;;;;;6.03;4.43;;;12.50;99.90;;;;;;4962639;28;20219;-81
2021/08/27 04:21:47;;;;;;;5.43;4.83;;;12.50;99.90;;;;;;4982471;28;20634;-81
2021/08/27 04:24:13;;;;;;;9.53;5.30;;;12.60;99.90;;;;;;4981016;28;20222;-81
2021/08/27 04:26:39;;;;;;;5.87;3.90;;;12.60;99.90;;;;;;4961999;28;20644;-81
2021/08/27 04:29:06;;;;;;;7.30;4.60;;;12.60;99.90;;;;;;4979105;28;20191;-81
2021/08/27 04:31:32;;;;;;;6.47;4.40;;;12.60;99.90;;;;;;4979072;28;20225;-81
2021/08/27 04:33:57;;;;;;;8.80;4.90;;;12.60;99.90;;;;;;4982221;28;20175;-81
2021/08/27 04:36:23;;;;;;;7.83;4.90;;;12.60;99.90;;;;;;4962859;28;20187;-81
2021/08/27 04:38:50;;;;;;;6.27;4.47;;;12.60;99.90;;;;;;4961325;28;20248;-81
2021/08/27 04:41:16;;;;;;;5.03;4.60;;;12.60;99.90;;;;;;4961520;28;20238;-81
2021/08/27 04:43:42;;;;;;;5.83;4.43;;;12.50;99.90;;;;;;4960971;28;20217;-81
2021/08/27 04:46:11;;;;;;;6.60;5.00;;;12.40;99.90;;;;;;4978798;28;20172;-81
2021/08/27 04:48:37;;;;;;;8.17;4.40;;;12.30;99.90;;;;;;4978570;28;20290;-81
2021/08/27 04:51:03;;;;;;;8.37;4.87;;;12.40;99.90;;;;;;4979014;28;20191;-81
2021/08/27 04:53:29;;;;;;;7.07;5.33;;;12.40;99.90;;;;;;4978675;28;20173;-81
2021/08/27 04:55:54;;;;;;;5.87;5.27;;;12.40;99.90;;;;;;4960892;28;20176;-81
2021/08/27 04:58:25;;;;;;;6.13;5.20;;;12.40;99.90;;;;;;4978865;28;20665;-81
2021/08/27 05:00:51;;;;;;;6.53;4.70;;;12.50;99.90;;;;;;4979073;28;20275;-81
2021/08/27 05:03:17;;;;;;;5.80;4.40;;;12.50;99.90;;;;;;4978991;28;20193;-81
2021/08/27 05:05:42;;;;;;;6.37;4.90;;;12.60;99.90;;;;;;4960662;28;20173;-81
2021/08/27 05:08:08;;;;;;;8.67;4.90;;;12.60;99.90;;;;;;4961426;28;20173;-81
2021/08/27 05:10:34;;;;;;;8.07;5.00;;;12.60;99.90;;;;;;4978343;28;20223;-81
2021/08/27 05:13:00;;;;;;;6.07;5.17;;;12.60;99.90;;;;;;4978366;28;20176;-81
2021/08/27 05:15:25;;;;;;;5.03;4.63;;;12.70;99.90;;;;;;4978087;28;20650;-81
2021/08/27 05:17:51;;;;;;;8.43;4.90;;;12.70;99.90;;;;;;4977925;28;20187;-81
2021/08/27 05:20:17;;;;;;;6.00;5.10;;;12.80;99.90;;;;;;4961551;28;20730;-81
2021/08/27 05:22:43;;;;;;;10.00;5.47;;;12.80;99.90;;;;;;4961646;28;20271;-81
2021/08/27 05:25:09;;;;;;;7.03;5.60;;;12.80;99.90;;;;;;4979269;28;20207;-81
2021/08/27 05:27:38;;;;;;;6.73;5.60;;;12.80;99.90;;;;;;4978500;28;20172;-81
2021/08/27 05:30:07;;;;;;;8.07;4.90;;;12.90;99.90;;;;;;4960498;28;20196;-81
2021/08/27 05:32:32;;;;;;;16.17;5.93;;;13.00;99.90;;;;;;4978637;28;20172;-81
2021/08/27 05:34:58;;;;;;;9.20;5.30;;;12.90;99.90;;;;;;4977502;28;20172;-81
2021/08/27 05:37:24;;;;;;;8.50;5.50;;;12.90;99.90;;;;;;4961167;28;20184;-81
2021/08/27 05:39:51;;;;;;;6.87;6.13;;;12.90;99.90;;;;;;4978702;28;20646;-81
2021/08/27 05:42:17;;;;;;;10.67;5.93;;;13.00;99.90;;;;;;4978984;28;20284;-81
2021/08/27 05:44:42;;;;;;;7.90;5.97;;;13.10;99.90;;;;;;4977415;28;20255;-81
2021/08/27 05:47:08;;;;;;;10.83;5.00;;;13.20;99.90;;;;;;4978162;28;20228;-81
2021/08/27 05:49:34;;;;;;;8.43;4.73;;;13.20;99.90;;;;;;4977848;28;20192;-81
2021/08/27 05:52:00;;;;;;;5.83;4.27;;;13.20;99.90;;;;;;4961217;28;20169;-81
2021/08/27 05:54:25;;;;;;;7.77;4.33;;;13.20;99.90;;;;;;4961052;28;20544;-81
2021/08/27 05:56:51;;;;;;;6.47;4.37;;;13.30;99.90;;;;;;4979530;28;20172;-81
2021/08/27 05:59:16;;;;;;;5.43;4.03;;;13.30;99.90;;;;;;4980327;28;20652;-81
2021/08/27 06:01:42;;;;;;;5.67;4.00;;;13.30;99.90;;;;;;4962812;28;20176;-81
2021/08/27 06:04:08;;;;;;;7.90;4.87;;;13.40;99.90;;;;;;4978287;28;20637;-81
2021/08/27 06:06:35;;;;;;;8.70;5.23;;;13.30;99.90;;;;;;4962585;28;20205;-81
2021/08/27 06:09:02;;;;;;;8.83;4.83;;;13.30;99.90;;;;;;4962012;28;20214;-81
2021/08/27 06:11:27;;;;;;;5.63;4.27;;;13.30;99.90;;;;;;4979143;28;20728;-81
2021/08/27 06:13:53;;;;;;;6.50;4.40;;;13.30;99.90;;;;;;4979099;28;20196;-81
2021/08/27 06:16:19;;;;;;;7.50;5.03;;;13.30;99.90;;;;;;4977787;28;20169;-81
2021/08/27 06:18:44;;;;;;;6.47;4.27;;;13.40;99.90;;;;;;4977845;28;20588;-81
2021/08/27 06:21:10;;;;;;;6.20;4.73;;;13.60;99.90;;;;;;4977608;28;20262;-81
2021/08/27 06:23:36;;;;;;;6.90;5.03;;;13.60;99.90;;;;;;4962769;28;20255;-81
2021/08/27 06:26:01;;;;;;;11.13;8.00;;;13.70;99.90;;;;;;4967236;28;20173;-81
2021/08/27 06:28:27;;;;;;;5.53;5.03;;;13.70;99.90;;;;;;4982842;28;20531;-81
2021/08/27 06:30:52;;;;;;;5.70;4.20;;;13.80;99.90;;;;;;4982283;28;20189;-81
2021/08/27 06:33:18;;;;;;;7.27;4.77;;;13.90;99.90;;;;;;4984208;28;20177;-81
2021/08/27 06:35:44;;;;;;;6.20;3.50;;;13.90;99.90;;;;;;4965873;28;20651;-81
2021/08/27 06:38:23;;;;;;;7.10;4.80;;;13.90;99.90;;;;;;4984348;28;20636;-81
2021/08/27 06:40:55;;;;;;;4.80;4.10;;;14.00;99.90;;;;;;5003591;23;20235;-76
2021/08/27 06:43:22;;;;;;;5.67;4.40;;;13.90;99.90;;;;;;4986461;28;20307;-78
2021/08/27 06:45:48;;;;;;;7.27;5.03;;;13.90;99.90;;;;;;4986169;28;20544;-78
2021/08/27 06:48:13;;;;;;;5.67;4.10;;;13.90;99.90;;;;;;5003126;28;20168;-77
2021/08/27 06:50:39;;;;;;;8.70;4.43;;;13.90;99.90;;;;;;5003015;28;20187;-78
2021/08/27 06:53:06;;;;;;;4.73;4.10;;;13.90;99.90;;;;;;4986318;28;20713;-78
2021/08/27 06:55:33;;;;;;;7.47;4.37;;;14.00;99.90;;;;;;5003220;28;20184;-78
2021/08/27 06:57:59;;;;;;;4.60;3.80;;;14.00;99.90;;;;;;5003591;28;20168;-78
2021/08/27 07:00:26;;;;;;;4.60;3.73;;;14.00;99.90;;;;;;5003277;28;20246;-78
2021/08/27 07:02:52;;;;;;;5.00;3.93;;;14.00;99.90;;;;;;5003098;28;20195;-78
2021/08/27 07:05:18;;;;;;;6.67;4.47;;;14.10;99.90;;;;;;5004304;28;20168;-78
2021/08/27 07:07:44;;;;;;;12.63;4.93;;;14.10;99.90;;;;;;4986668;28;20231;-78
2021/08/27 07:10:09;;;;;;;5.77;4.30;;;14.20;99.90;;;;;;5004137;28;20218;-78
2021/08/27 07:12:35;;;;;;;7.20;4.10;;;14.20;99.90;;;;;;5004681;28;20176;-78
2021/08/27 07:15:01;;;;;;;9.73;4.17;;;14.30;99.90;;;;;;5004161;28;20187;-79
2021/08/27 07:17:26;;;;;;;6.47;4.03;;;14.30;99.90;;;;;;5001746;28;20176;-79
2021/08/27 07:20:03;;;;;;;5.70;3.97;;;14.30;99.90;;;;;;5003563;28;20273;-76
2021/08/27 07:22:28;;;;;;;5.57;4.73;;;14.40;99.90;;;;;;5004157;28;20603;-78
2021/08/27 07:24:54;;;;;;;5.67;4.37;;;14.40;99.90;;;;;;4987136;28;20171;-79
2021/08/27 07:27:20;;;;;;;6.90;3.90;;;14.40;99.90;;;;;;5003979;28;20172;-79
2021/08/27 07:29:45;;;;;;;4.93;3.97;;;14.50;99.90;;;;;;4985626;28;20188;-78
2021/08/27 07:32:11;;;;;;;5.27;3.70;;;14.50;99.90;;;;;;5001815;28;20172;-79
2021/08/27 07:34:42;;;;;;;4.10;3.20;;;14.50;99.90;;;;;;5003579;28;20167;-78
2021/08/27 07:37:08;;;;;;;4.73;3.33;;;14.50;99.90;;;;;;5005467;28;20735;-78
2021/08/27 07:39:35;;;;;;;8.37;5.30;;;14.50;99.90;;;;;;4988507;28;20180;-78
2021/08/27 07:42:02;;;;;;;5.47;4.40;;;14.60;99.90;;;;;;5006063;28;20584;-78
2021/08/27 07:44:28;;;;;;;7.67;4.93;;;14.50;99.90;;;;;;5007831;28;20172;-79
2021/08/27 07:46:56;;;;;;;6.40;4.93;;;14.50;99.90;;;;;;4990233;28;20283;-78
2021/08/27 07:49:22;;;;;;;5.47;4.50;;;14.60;99.90;;;;;;5006682;28;20517;-78
2021/08/27 07:51:50;;;;;;;6.87;4.63;;;14.60;99.90;;;;;;4988223;28;20210;-79
2021/08/27 07:54:16;;;;;;;4.80;4.30;;;14.60;99.90;;;;;;5005709;28;20724;-79
2021/08/27 07:56:42;;;;;;;5.20;4.20;;;14.60;99.90;;;;;;4989084;28;20207;-79
2021/08/27 07:59:07;;;;;;;6.43;4.53;;;14.70;99.90;;;;;;5006288;28;20191;-78
2021/08/27 08:01:33;;;;;;;5.93;4.30;;;14.70;99.90;;;;;;5009862;28;20196;-79
2021/08/27 08:04:01;;;;;;;6.43;4.30;;;14.70;99.90;;;;;;5009595;28;20203;-80
2021/08/27 08:06:27;;;;;;;5.53;4.07;;;14.70;99.90;;;;;;5008043;28;20160;-79
2021/08/27 08:08:52;;;;;;;5.80;4.37;;;14.80;99.90;;;;;;4990589;28;20556;-80
2021/08/27 08:11:18;;;;;;;6.33;4.23;;;14.80;99.90;;;;;;5009729;28;20272;-80
2021/08/27 08:13:44;;;;;;;9.23;4.57;;;14.80;99.90;;;;;;5008249;28;20179;-80
2021/08/27 08:16:10;;;;;;;5.87;3.70;;;14.80;99.90;;;;;;5008450;28;20176;-80
2021/08/27 08:18:36;;;;;;;10.07;5.23;;;14.80;99.90;;;;;;4991043;28;20182;-79
2021/08/27 08:21:05;;;;;;;7.50;6.20;;;15.00;99.90;;;;;;5007588;28;20279;-80
2021/08/27 08:23:31;;;;;;;7.23;5.40;;;15.00;99.90;;;;;;5007906;28;20203;-79
2021/08/27 08:25:57;;;;;;;6.90;4.23;;;15.10;99.90;;;;;;5008086;28;20653;-79
2021/08/27 08:28:23;;;;;;;7.93;4.13;;;15.20;99.90;;;;;;5000678;28;20182;-80
2021/08/27 08:30:50;;;;;;;5.87;3.60;;;15.30;99.90;;;;;;5001712;28;20215;-82
2021/08/27 08:33:15;;;;;;;5.17;2.93;;;15.40;99.90;;;;;;5001202;28;20588;-82
2021/08/27 08:35:41;;;;;;;5.23;3.33;;;15.50;99.90;;;;;;5001443;28;20172;-82
2021/08/27 08:38:07;;;;;;;5.77;3.50;;;15.50;99.90;;;;;;5000412;28;20184;-82
2021/08/27 08:40:38;;;;;;;3.70;2.60;;;15.50;99.90;;;;;;5000117;28;20223;-82
2021/08/27 08:43:04;;;;;;;6.87;3.20;;;15.50;99.90;;;;;;5000836;28;20192;-82
2021/08/27 08:45:31;;;;;;;8.93;3.13;;;15.70;99.90;;;;;;5000999;28;20187;-82
2021/08/27 08:47:58;;;;;;;5.47;2.77;;;15.80;99.90;;;;;;5000920;28;20168;-82
2021/08/27 08:50:24;;;;;;;3.57;3.10;;;15.90;99.90;;;;;;5000631;28;20191;-82
2021/08/27 08:52:50;;;;;;;4.00;3.30;;;15.90;99.90;;;;;;5000120;28;20589;-82
2021/08/27 08:55:16;;;;;;;5.80;3.27;;;16.10;99.90;;;;;;5000075;28;20172;-82
2021/08/27 08:57:42;;;;;;;4.43;3.00;;;16.10;99.90;;;;;;4998650;28;20183;-82
2021/08/27 09:00:08;;;;;;;6.80;3.50;;;16.10;99.90;;;;;;4998842;28;20263;-82
2021/08/27 09:02:34;;;;;;;4.83;3.17;;;16.20;99.90;;;;;;4999233;28;20203;-81
2021/08/27 09:05:00;;;;;;;3.13;2.80;;;16.30;99.90;;;;;;5000103;28;20181;-82
2021/08/27 09:07:25;;;;;;;4.50;3.00;;;16.40;99.90;;;;;;4998487;28;20188;-82
2021/08/27 09:09:51;;;;;;;4.27;2.80;;;16.50;99.90;;;;;;4999232;28;20200;-81
2021/08/27 09:12:20;;;;;;;4.80;3.27;;;16.60;99.90;;;;;;4998745;28;20178;-82
2021/08/27 09:15:02;;;;;;;4.77;3.27;;;16.60;99.90;;;;;;5000902;28;20172;-83
2021/08/27 09:17:33;;;;;;;5.07;3.10;;;16.60;99.90;;;;;;5000521;28;20157;-82
2021/08/27 09:20:02;;;;;;;4.27;3.17;;;16.60;99.90;;;;;;4999525;28;20219;-82
2021/08/27 09:22:47;;;;;;;5.23;3.20;;;16.70;99.90;;;;;;5000287;28;20669;-82
2021/08/27 09:25:15;;;;;;;5.17;3.40;;;16.70;99.90;;;;;;5000838;28;20159;-82
2021/08/27 09:28:11;;;;;;;4.67;2.90;;;16.80;99.90;;;;;;5000171;28;20245;-82
2021/08/27 09:30:52;;;;;;;4.87;3.10;;;16.80;99.90;;;;;;4996760;28;20239;-82
2021/08/27 09:33:22;;;;;;;3.43;3.13;;;16.80;99.90;;;;;;5000575;28;20587;-82
2021/08/27 09:36:04;;;;;;;4.07;3.33;;;16.80;99.90;;;;;;5000011;28;20177;-82
2021/08/27 09:38:34;;;;;;;5.23;3.50;;;16.70;99.90;;;;;;4998408;28;20177;-82
2021/08/27 09:41:10;;;;;;;4.13;2.90;;;16.60;99.90;;;;;;5000365;28;20221;-82
2021/08/27 09:43:46;;;;;;;3.43;2.97;;;16.50;99.90;;;;;;5000047;28;20226;-82
2021/08/27 09:46:31;;;;;;;7.33;3.53;;;16.60;99.90;;;;;;4999752;28;20170;-82
2021/08/27 09:48:58;;;;;;;3.10;2.80;;;16.60;99.90;;;;;;4999737;28;20169;-82
2021/08/27 09:51:54;;;;;;;5.00;3.23;;;16.50;99.90;;;;;;4998520;28;20198;-82
2021/08/27 09:54:26;;;;;;;3.70;3.00;;;16.60;99.90;;;;;;4991288;28;20265;-82
2021/08/27 09:56:55;;;;;;;5.57;3.10;;;16.60;99.90;;;;;;5000589;28;20200;-82
2021/08/27 09:59:46;;;;;;;4.77;3.07;;;16.70;99.90;;;;;;5002175;28;20582;-82
2021/08/27 10:02:15;;;;;;;5.00;2.90;;;16.90;99.90;;;;;;4998962;28;20179;-82
2021/08/27 10:05:00;;;;;;;5.73;3.30;;;17.20;99.90;;;;;;5004210;28;20631;-82
2021/08/27 10:07:30;;;;;;;3.87;3.03;;;17.40;99.90;;;;;;5004448;28;20177;-83
2021/08/27 10:09:58;;;;;;;5.13;3.20;;;17.40;99.90;;;;;;5003945;28;20195;-82
2021/08/27 10:12:29;;;;;;;4.07;3.10;;;17.30;99.90;;;;;;5002088;28;20179;-82
2021/08/27 10:14:55;;;;;;;6.80;3.40;;;17.20;99.90;;;;;;5002389;28;20189;-82
2021/08/27 10:17:21;;;;;;;4.60;3.03;;;17.20;99.90;;;;;;5001714;28;20187;-82
2021/08/27 10:19:47;;;;;;;7.57;4.13;;;17.20;99.90;;;;;;5003278;28;20215;-82
2021/08/27 10:22:12;;;;;;;6.23;4.13;;;17.10;99.90;;;;;;5003203;28;20701;-82
2021/08/27 10:24:39;;;;;;;6.30;4.60;;;17.10;99.90;;;;;;5004089;28;20175;-82
2021/08/27 10:27:09;;;;;;;6.63;5.50;;;16.90;99.90;;;;;;5004565;28;20169;-82
2021/08/27 10:29:48;;;;;;;5.87;4.40;;;16.60;99.90;;;;;;5003071;28;20225;-82
2021/08/27 10:32:14;;;;;;;7.07;4.17;;;16.60;99.90;;;;;;5003081;28;20155;-83
2021/08/27 10:34:44;;;;;;;4.80;4.33;;;16.30;99.90;;;;;;5001784;28;20649;-83
2021/08/27 10:37:50;;;;;;;7.70;5.10;;;16.00;99.90;;;;;;5004183;28;20187;-83
2021/08/27 10:40:37;;;;;;;7.97;5.40;;;15.90;99.90;;;;;;5002964;28;20220;-83
2021/08/27 10:43:04;;;;;;;7.47;5.50;;;15.80;99.90;;;;;;5004702;28;20635;-83
2021/08/27 10:45:35;;;;;;;7.17;5.77;;;15.60;99.90;;;;;;5004913;28;20167;-83
2021/08/27 10:48:10;;;;;;;6.87;4.93;;;15.50;99.90;;;;;;5006837;28;20179;-83
2021/08/27 10:50:41;;;;;;;7.83;5.10;;;15.40;99.90;;;;;;5008499;28;20258;-83
2021/08/27 10:53:31;;;;;;;7.37;5.97;;;15.30;99.90;;;;;;5004397;28;20587;-83
2021/08/27 10:56:03;;;;;;;6.23;5.37;;;15.30;99.90;;;;;;4997864;28;20187;-83
2021/08/27 10:58:37;;;;;;;5.73;5.23;;;15.30;99.90;;;;;;5007053;28;20160;-83
2021/08/27 11:01:03;;;;;;;12.63;6.93;;;15.30;99.90;;;;;;5004392;28;20684;-83
2021/08/27 11:04:03;;;;;;;8.40;6.93;;;15.40;99.90;;;;;;5005790;28;20195;-83
2021/08/27 11:06:30;;;;;;;6.20;5.57;;;15.40;99.90;;;;;;5006142;28;20168;-83
2021/08/27 11:09:23;;;;;;;7.97;6.43;;;15.40;99.90;;;;;;5005504;28;20199;-83
2021/08/27 11:12:21;;;;;;;5.73;5.13;;;15.40;99.90;;;;;;5000168;28;20207;-82
2021/08/27 11:14:52;;;;;;;6.40;5.80;;;15.40;99.90;;;;;;4995349;28;20184;-82
2021/08/27 11:17:18;;;;;;;6.87;6.20;;;15.40;99.90;;;;;;5003592;28;20156;-83
2021/08/27 11:19:48;;;;;;;7.20;5.63;;;15.40;99.90;;;;;;5001826;28;20196;-82
2021/08/27 11:22:29;;;;;;;7.40;6.40;;;15.50;99.90;;;;;;5001460;28;20171;-82
2021/08/27 11:25:04;;;;;;;6.90;6.30;;;15.60;99.90;;;;;;5002501;28;20654;-82
2021/08/27 11:27:32;;;;;;;8.33;6.47;;;15.70;99.90;;;;;;5002827;28;20179;-82
2021/08/27 11:30:01;;;;;;;7.77;6.97;;;15.70;99.90;;;;;;5003359;28;20184;-82
2021/08/27 11:32:26;;;;;;;7.27;6.60;;;15.80;99.90;;;;;;4985858;28;20179;-82
2021/08/27 11:35:00;;;;;;;7.07;6.47;;;15.80;99.90;;;;;;5000713;28;20232;-82
2021/08/27 11:37:38;;;;;;;10.53;7.43;;;15.90;99.90;;;;;;5000992;28;20182;-82
2021/08/27 11:40:07;;;;;;;8.80;7.90;;;16.10;99.90;;;;;;5002500;28;20210;-82
2021/08/27 11:42:34;;;;;;;6.73;5.93;;;16.10;99.90;;;;;;5001878;28;20203;-83
2021/08/27 11:45:05;;;;;;;7.00;6.30;;;16.10;99.90;;;;;;5003045;28;20238;-82
2021/08/27 11:47:43;;;;;;;8.73;6.63;;;16.20;99.90;;;;;;5002421;28;20165;-82
2021/08/27 11:50:18;;;;;;;7.87;7.17;;;16.30;99.90;;;;;;5001325;28;20195;-82
2021/08/27 11:52:44;;;;;;;8.17;7.37;;;16.40;99.90;;;;;;5002159;28;20160;-82
2021/08/27 11:55:14;;;;;;;8.97;7.50;;;16.40;99.90;;;;;;5000520;28;20181;-82
2021/08/27 11:57:56;;;;;;;8.67;7.70;;;16.40;99.90;;;;;;5001644;28;20166;-82
2021/08/27 12:00:43;;;;;;;8.13;7.33;;;16.40;99.90;;;;;;5001290;28;20199;-82
2021/08/27 12:03:14;;;;;;;5.93;5.33;;;16.30;99.90;;;;;;5001595;28;20211;-82
2021/08/27 12:05:41;;;;;;;8.23;7.43;;;16.30;99.90;;;;;;5002258;28;20160;-82
2021/08/27 12:08:13;;;;;;;8.40;7.50;;;16.40;99.90;;;;;;5000476;28;20659;-82
2021/08/27 12:10:42;;;;;;;8.40;7.50;;;16.50;99.90;;;;;;5001795;28;20211;-82
2021/08/27 12:13:13;;;;;;;11.50;8.80;;;16.50;99.90;;;;;;5000827;28;20184;-82
2021/08/27 12:15:43;;;;;;;9.73;8.57;;;16.50;99.90;;;;;;5003531;28;20190;-82
2021/08/27 12:18:16;;;;;;;12.37;8.67;;;16.60;99.90;;;;;;5002068;28;20182;-82
2021/08/27 12:20:47;;;;;;;10.20;9.10;;;16.60;99.90;;;;;;4999308;28;20198;-82
2021/08/27 12:23:17;;;;;;;10.73;9.63;;;16.60;99.90;;;;;;5001047;28;20590;-82
2021/08/27 12:25:53;;;;;;;11.83;9.87;;;16.70;99.90;;;;;;5001048;28;20170;-82
2021/08/27 12:28:19;;;;;;;11.00;9.13;;;16.60;99.90;;;;;;5000134;28;20167;-82
2021/08/27 12:30:50;;;;;;;18.77;12.47;;;16.60;99.90;;;;;;5000747;28;20622;-82
2021/08/27 12:33:16;;;;;;;14.63;11.70;;;16.60;99.90;;;;;;4980118;28;20180;-82
2021/08/27 12:35:42;;;;;;;16.33;11.73;;;16.60;99.90;;;;;;5001302;28;20193;-82
2021/08/27 12:38:08;;;;;;;13.20;6.90;;;16.70;99.90;;;;;;5000894;28;20175;-82
2021/08/27 12:40:35;;;;;;;7.40;6.07;;;16.70;99.90;;;;;;5022176;23;20238;-80
2021/08/27 12:43:07;;;;;;;7.07;6.00;;;16.80;99.90;;;;;;4995615;28;20206;-81
2021/08/27 12:45:53;;;;;;;6.63;5.20;;;16.80;99.90;;;;;;4978676;28;20229;-82
2021/08/27 12:48:22;;;;;;;6.17;5.57;;;16.80;99.90;;;;;;4996440;28;20158;-81
2021/08/27 12:50:53;;;;;;;5.40;4.87;;;16.80;99.90;;;;;;5004721;28;20196;-81
2021/08/27 12:53:29;;;;;;;5.47;4.97;;;16.80;99.90;;;;;;5000466;28;20182;-82
2021/08/27 12:56:14;;;;;;;6.20;5.53;;;16.90;99.90;;;;;;4999529;28;20175;-83
2021/08/27 12:58:49;;;;;;;8.90;6.00;;;16.90;99.90;;;;;;4997600;28;20173;-82
2021/08/27 13:01:21;;;;;;;8.53;6.57;;;16.90;99.90;;;;;;4999701;28;20197;-81
2021/08/27 13:03:52;;;;;;;5.43;4.87;;;17.00;99.90;;;;;;4999217;28;20190;-82